ADDS METAR Data INFO
IDs: Format: Raw Decoded Include TAF

Data at: 1351 UTC 17 Dec 2017

KSDF 171256Z 22003KT 10SM FEW100 OVC120 06/M01 A3021 RMK AO2 SLP231 T00611011
KSDF 171156Z 14005KT 10SM SCT120 OVC130 05/M01 A3017 RMK AO2 SLP219 T00501006 10072 20039 55006
KSDF 171056Z 16006KT 10SM OVC130 05/M01 A3016 RMK AO2 SLP216 T00501006
KSDF 170956Z 12004KT 10SM BKN140 OVC180 05/M01 A3017 RMK AO2 SLP218 T00501011
KSDF 170856Z 15006KT 10SM OVC180 05/M01 A3019 RMK AO2 SLP226 T00501011 56000
KSDF 170756Z 16005KT 10SM OVC220 04/M01 A3019 RMK AO2 SLP226 T00441011
KSDF 170656Z 18008KT 10SM OVC210 06/M02 A3018 RMK AO2 SLP222 T00611017
KSDF 170556Z 17007KT 10SM BKN220 06/M02 A3019 RMK AO2 SLP226 T00611017 10089 20044 50010
KSDF 170456Z 18006KT 10SM OVC250 07/M02 A3020 RMK AO2 SLP227 T00671017 401170011
KSDF 170356Z 18006KT 10SM BKN250 07/M02 A3018 RMK AO2 SLP223 T00671017
KSDF 170256Z 19005KT 10SM BKN250 07/M02 A3016 RMK AO2 SLP217 T00721017 53009
KSDF 170156Z 19007KT 10SM BKN250 08/M02 A3016 RMK AO2 SLP215 T00781017
KSDF 170056Z 20009KT 10SM BKN250 09/M02 A3014 RMK AO2 SLP209 T00891017
KSDF 162356Z 19007KT 10SM BKN250 09/M02 A3014 RMK AO2 SLP207 T00891017 10117 20089 53015
KSDF 162256Z 19008KT 10SM BKN250 09/M02 A3012 RMK AO2 SLP202 T00941017
KSDF 162156Z 22010KT 10SM BKN250 11/M02 A3010 RMK AO2 SLP195 T01061022
KSDF 162056Z 23012KT 10SM FEW250 12/M03 A3009 RMK AO2 SLP191 T01171028 55008
KSDF 161956Z 22012G24KT 10SM FEW250 12/M03 A3008 RMK AO2 SLP187 T01171028
KSDF 161856Z 22016KT 10SM FEW250 11/M02 A3010 RMK AO2 SLP194 T01061022
KSDF 161756Z 23016G25KT 10SM FEW250 10/M02 A3011 RMK AO2 SLP199 T01001022 10100 20011 58009
KSDF 161656Z 21010KT 10SM FEW250 08/M02 A3013 RMK AO2 SLP206 T00831017
KSDF 161556Z 22011KT 10SM FEW250 06/M02 A3015 RMK AO2 SLP213 T00611022
KSDF 161456Z 19006KT 10SM FEW250 04/M03 A3014 RMK AO2 SLP210 T00391028 51003
KSDF 161356Z 18008KT 10SM CLR 02/M03 A3014 RMK AO2 SLP209 T00171033
KSDF 161256Z 18006KT 10SM FEW250 01/M04 A3014 RMK AO2 SLP209 T00111039
KSDF 161156Z 21007KT 10SM CLR 02/M04 A3013 RMK AO2 SLP208 T00171039 10039 20011 53005
KSDF 161056Z 21009G18KT 10SM CLR 02/M04 A3011 RMK AO2 SLP200 T00221039
KSDF 160956Z 22010KT 10SM CLR 02/M04 A3012 RMK AO2 SLP204 T00221039
KSDF 160856Z 20009KT 10SM CLR 03/M04 A3012 RMK AO2 SLP203 T00281039 58005
KSDF 160756Z 20008KT 10SM CLR 03/M04 A3013 RMK AO2 SLP206 T00331044
KSDF 160656Z 19008KT 10SM OVC050 04/M04 A3013 RMK AO2 SLP204 T00391044
KSDF 160556Z 21006KT 10SM OVC055 04/M04 A3013 RMK AO2 SLP206 T00391044 10039 20011 50001
KSDF 160456Z 21006KT 10SM OVC055 03/M04 A3014 RMK AO2 SLP211 T00331044 400391022
KSDF 160356Z 19004KT 10SM OVC060 02/M04 A3014 RMK AO2 SLP209 T00171044
KSDF 160256Z 21004KT 10SM FEW040 01/M05 A3013 RMK AO2 SLP206 T00111050 51006
KSDF 160156Z 22005KT 10SM FEW039 02/M05 A3013 RMK AO2 SLP206 T00171050